KPNS/PNS METAR and TAF weather

Enter ICAO airport designator
Station Type Date Time Source
KPNS METAR 2019/08/26 07:53 UTC NOAA

KPNS 260753Z AUTO 10003KT 10SM CLR 27/26 A2990 RMK AO2 SLP126 T02670261 $


Station Type Date Time Source
KPNS Decoded METAR 2019/08/26 07:53 UTC NOAA

Station name not available
Aug 26, 2019 - 03:53 AM EDT / 2019.08.26 0753 UTC
Wind: from the E (100 degrees) at 3 MPH (3 KT):0
Visibility: 10 mile(s):0
Sky conditions: clear
Temperature: 80.1 F (26.7 C)
Dew Point: 79.0 F (26.1 C)
Relative Humidity: 96%
Pressure (altimeter): 29.9 in. Hg (1012 hPa)
ob: KPNS 260753Z AUTO 10003KT 10SM CLR 27/26 A2990 RMK AO2 SLP126 T02670261
cycle: 8

Station Type Date Time Source
KPNS TAF 2019/08/26 06:22 UTC NOAA

TAF KPNS 260520Z 2606/2706 19006KT P6SM VCSH FEW024 SCT045 BKN100
FM261200 12004KT P6SM VCSH OVC015
TEMPO 2614/2618 2SM TSRA BKN015CB
FM261800 20008KT P6SM VCTS OVC025CB
TEMPO 2618/2622 2SM TSRA BKN015CB
FM262200 20008KT P6SM VCTS SCT025CB BKN050
TEMPO 2622/2702 3SM TSRA BKN020CB
FM270300 20005KT P6SM VCSH SCT020 BKN040

Example: see airport list